Time;durP1;ratioP1;P1;durP2;ratioP2;P2;SDS_P1;SDS_P2;PMS_P1;PMS_P2;Temp;Humidity;BMP_temperature;BMP_pressure;BME280_temperature;BME280_humidity;BME280_pressure;Samples;Min_cycle;Max_cycle;Signal;HPM_P1;HPM_P2
2022/07/03 00:00:31;;;;;;;4.78;4.43;;;;;;;;;;2075348;28;20204;-57
2022/07/03 00:01:31;;;;;;;5.60;5.15;;;;;;;;;;2075232;28;20563;-58
2022/07/03 00:02:32;;;;;;;4.72;4.13;;;;;;;;;;2075500;28;20172;-61
2022/07/03 00:03:32;;;;;;;4.63;4.32;;;;;;;;;;2079657;28;20212;-59
2022/07/03 00:04:32;;;;;;;4.72;4.32;;;;;;;;;;2083033;28;20176;-55
2022/07/03 00:05:33;;;;;;;9.20;5.00;;;;;;;;;;2083921;28;20199;-57
2022/07/03 00:06:33;;;;;;;5.57;4.53;;;;;;;;;;2083715;28;20164;-56
2022/07/03 00:07:34;;;;;;;4.55;4.25;;;;;;;;;;2083433;28;20177;-58
2022/07/03 00:08:34;;;;;;;5.00;4.60;;;;;;;;;;2079371;28;20172;-57
2022/07/03 00:09:35;;;;;;;7.38;4.93;;;;;;;;;;2077220;28;20180;-59
2022/07/03 00:10:35;;;;;;;5.72;5.03;;;;;;;;;;2076162;28;20189;-58
2022/07/03 00:11:35;;;;;;;5.05;4.53;;;;;;;;;;2076158;28;20188;-61
2022/07/03 00:12:36;;;;;;;6.38;5.00;;;;;;;;;;2076353;28;20200;-58
2022/07/03 00:13:36;;;;;;;5.70;5.28;;;;;;;;;;2080400;28;20234;-61
2022/07/03 00:14:37;;;;;;;6.05;5.55;;;;;;;;;;2082876;28;20210;-59
2022/07/03 00:15:38;;;;;;;5.43;5.03;;;;;;;;;;2084434;28;20225;-60
2022/07/03 00:16:38;;;;;;;5.43;4.75;;;;;;;;;;2082412;28;20263;-56
2022/07/03 00:17:39;;;;;;;4.18;3.85;;;;;;;;;;2083828;28;20203;-60
2022/07/03 00:18:39;;;;;;;4.28;3.97;;;;;;;;;;2080517;28;20176;-59
2022/07/03 00:19:39;;;;;;;4.82;4.43;;;;;;;;;;2082233;28;20207;-58
2022/07/03 00:20:49;;;;;;;4.80;4.38;;;;;;;;;;2081346;28;20262;-57
2022/07/03 00:21:55;;;;;;;6.07;4.38;;;;;;;;;;2081796;28;20307;-56
2022/07/03 00:22:56;;;;;;;3.67;3.38;;;;;;;;;;2079710;28;20164;-55
2022/07/03 00:24:03;;;;;;;3.88;3.47;;;;;;;;;;2073622;28;20176;-60
2022/07/03 00:25:05;;;;;;;4.40;3.85;;;;;;;;;;2073992;28;20259;-58
2022/07/03 00:26:05;;;;;;;4.18;3.88;;;;;;;;;;2074075;28;20161;-57
2022/07/03 00:27:08;;;;;;;4.05;3.65;;;;;;;;;;2076133;28;20205;-56
2022/07/03 00:28:08;;;;;;;4.20;3.63;;;;;;;;;;2082109;28;20168;-56
2022/07/03 00:29:10;;;;;;;4.07;3.78;;;;;;;;;;2079129;28;20670;-52
2022/07/03 00:30:10;;;;;;;4.07;3.38;;;;;;;;;;2078649;28;20164;-56
2022/07/03 00:31:11;;;;;;;4.22;3.85;;;;;;;;;;2081802;28;20637;-57
2022/07/03 00:32:13;;;;;;;3.72;3.42;;;;;;;;;;2082278;28;20180;-53
2022/07/03 00:33:13;;;;;;;3.25;2.92;;;;;;;;;;2081800;28;20165;-59
2022/07/03 00:34:15;;;;;;;5.53;3.70;;;;;;;;;;2082820;28;20239;-58
2022/07/03 00:35:16;;;;;;;5.63;4.10;;;;;;;;;;2084758;28;20523;-56
2022/07/03 00:36:17;;;;;;;5.43;3.85;;;;;;;;;;2083144;28;20179;-60
2022/07/03 00:37:17;;;;;;;3.55;3.25;;;;;;;;;;2082900;28;20168;-54
2022/07/03 00:38:18;;;;;;;4.63;4.22;;;;;;;;;;2082158;28;20747;-57
2022/07/03 00:39:18;;;;;;;4.25;3.60;;;;;;;;;;2080995;28;20222;-59
2022/07/03 00:40:18;;;;;;;4.05;3.55;;;;;;;;;;2081370;28;20986;-54
2022/07/03 00:41:27;;;;;;;3.92;3.63;;;;;;;;;;2075124;28;20662;-56
2022/07/03 00:42:28;;;;;;;3.40;3.15;;;;;;;;;;2073878;28;20171;-58
2022/07/03 00:43:28;;;;;;;3.58;3.28;;;;;;;;;;2073839;28;20157;-58
2022/07/03 00:44:29;;;;;;;3.85;3.63;;;;;;;;;;2072893;28;20181;-58
2022/07/03 00:45:32;;;;;;;3.75;3.45;;;;;;;;;;2073841;28;20162;-53
2022/07/03 00:46:36;;;;;;;3.67;3.38;;;;;;;;;;2073976;28;20169;-55
2022/07/03 00:47:37;;;;;;;4.85;4.32;;;;;;;;;;2073764;28;20169;-57
2022/07/03 00:48:38;;;;;;;4.93;4.43;;;;;;;;;;2073857;28;20173;-57
2022/07/03 00:49:39;;;;;;;5.32;4.90;;;;;;;;;;2073728;28;20592;-58
2022/07/03 00:50:43;;;;;;;4.18;3.88;;;;;;;;;;2077072;28;20197;-57
2022/07/03 00:51:46;;;;;;;5.28;3.67;;;;;;;;;;2080928;28;20180;-58
2022/07/03 00:52:49;;;;;;;4.55;4.15;;;;;;;;;;2083024;28;20196;-56
2022/07/03 00:53:54;;;;;;;5.07;4.68;;;;;;;;;;2082507;28;20188;-60
2022/07/03 00:54:57;;;;;;;4.03;3.72;;;;;;;;;;2078837;28;20169;-60
2022/07/03 00:55:59;;;;;;;4.15;3.85;;;;;;;;;;2075996;28;20266;-61
2022/07/03 00:57:00;;;;;;;6.05;5.55;;;;;;;;;;2084280;28;20226;-60
2022/07/03 00:58:01;;;;;;;5.60;5.20;;;;;;;;;;2084219;28;20188;-55
2022/07/03 00:59:01;;;;;;;5.57;5.13;;;;;;;;;;2080937;28;20228;-56
2022/07/03 01:00:01;;;;;;;4.15;3.85;;;;;;;;;;2076130;28;20169;-58
2022/07/03 01:01:02;;;;;;;5.97;5.47;;;;;;;;;;2075887;28;20189;-57
2022/07/03 01:02:04;;;;;;;3.97;3.67;;;;;;;;;;2075731;28;20231;-59
2022/07/03 01:03:12;;;;;;;4.68;4.28;;;;;;;;;;2075818;28;20161;-59
2022/07/03 01:04:30;;;;;;;7.35;4.82;;;;;;;;;;2075149;28;20215;-58
2022/07/03 01:05:42;;;;;;;4.20;3.80;;;;;;;;;;2075787;28;20160;-59
2022/07/03 01:06:53;;;;;;;4.07;3.78;;;;;;;;;;2076193;28;20208;-56
2022/07/03 01:07:53;;;;;;;5.47;4.13;;;;;;;;;;2075509;28;20164;-60
2022/07/03 01:08:59;;;;;;;4.68;4.25;;;;;;;;;;2083343;28;20258;-60
2022/07/03 01:10:07;;;;;;;16.95;4.18;;;;;;;;;;2083948;28;20598;-57
2022/07/03 01:11:14;;;;;;;3.85;3.65;;;;;;;;;;2081976;28;20202;-59
2022/07/03 01:12:23;;;;;;;3.88;3.58;;;;;;;;;;2082683;28;20176;-56
2022/07/03 01:13:45;;;;;;;3.97;3.20;;;;;;;;;;2082156;28;20180;-57
2022/07/03 01:15:04;;;;;;;5.72;4.43;;;;;;;;;;2072694;28;20176;-53
2022/07/03 01:16:06;;;;;;;3.78;3.08;;;;;;;;;;2073866;28;20160;-58
2022/07/03 01:17:15;;;;;;;3.95;3.75;;;;;;;;;;2073645;28;20176;-57
2022/07/03 01:18:31;;;;;;;3.55;3.35;;;;;;;;;;2073694;28;20153;-57
2022/07/03 01:19:43;;;;;;;3.78;3.47;;;;;;;;;;2075091;28;20208;-56
2022/07/03 01:20:47;;;;;;;3.85;3.55;;;;;;;;;;2081576;28;20199;-56
2022/07/03 01:22:10;;;;;;;4.13;3.63;;;;;;;;;;2081663;28;20180;-55
2022/07/03 01:23:19;;;;;;;4.22;3.50;;;;;;;;;;2078628;28;20187;-58
2022/07/03 01:24:22;;;;;;;3.58;3.00;;;;;;;;;;2080377;28;20160;-58
2022/07/03 01:25:24;;;;;;;3.47;3.15;;;;;;;;;;2081825;28;20164;-55
2022/07/03 01:26:26;;;;;;;3.50;3.20;;;;;;;;;;2079912;28;20166;-54
2022/07/03 01:27:31;;;;;;;3.38;3.13;;;;;;;;;;2073405;28;20255;-54
2022/07/03 01:28:32;;;;;;;3.55;3.25;;;;;;;;;;2074037;28;20169;-57
2022/07/03 01:29:40;;;;;;;3.40;3.10;;;;;;;;;;2081963;28;20630;-55
2022/07/03 01:30:43;;;;;;;3.33;3.03;;;;;;;;;;2081201;28;20551;-53
2022/07/03 01:31:46;;;;;;;5.10;3.20;;;;;;;;;;2081859;28;20167;-58
2022/07/03 01:32:50;;;;;;;3.03;2.83;;;;;;;;;;2084822;28;20251;-59
2022/07/03 01:33:51;;;;;;;3.33;3.03;;;;;;;;;;2077662;28;20188;-59
2022/07/03 01:34:52;;;;;;;3.28;2.97;;;;;;;;;;2075782;28;20188;-59
2022/07/03 01:36:01;;;;;;;3.45;3.15;;;;;;;;;;2076522;28;20173;-58
2022/07/03 01:37:03;;;;;;;3.25;3.05;;;;;;;;;;2076060;28;20280;-60
2022/07/03 01:38:05;;;;;;;3.67;2.95;;;;;;;;;;2076273;28;20824;-59
2022/07/03 01:39:09;;;;;;;3.38;3.00;;;;;;;;;;2084561;28;20164;-58
2022/07/03 01:40:10;;;;;;;5.97;3.00;;;;;;;;;;2084100;28;20176;-59
2022/07/03 01:41:11;;;;;;;3.05;2.85;;;;;;;;;;2083560;28;20160;-58
2022/07/03 01:42:13;;;;;;;3.25;3.05;;;;;;;;;;2083900;28;20172;-55
2022/07/03 01:43:14;;;;;;;3.10;3.00;;;;;;;;;;2080870;28;20263;-56
2022/07/03 01:44:16;;;;;;;2.95;2.75;;;;;;;;;;2076343;28;20168;-59
2022/07/03 01:45:18;;;;;;;3.75;3.45;;;;;;;;;;2082875;28;20192;-55
2022/07/03 01:46:20;;;;;;;4.28;3.55;;;;;;;;;;2082335;28;20607;-55
2022/07/03 01:47:22;;;;;;;3.78;3.38;;;;;;;;;;2081613;28;20645;-52
2022/07/03 01:48:23;;;;;;;3.70;3.50;;;;;;;;;;2081507;28;20183;-56
2022/07/03 01:49:25;;;;;;;4.10;3.80;;;;;;;;;;2065758;28;20190;-57
2022/07/03 01:50:28;;;;;;;4.05;3.65;;;;;;;;;;2073497;28;20215;-54
2022/07/03 01:51:28;;;;;;;3.38;3.17;;;;;;;;;;2082058;28;20164;-57
2022/07/03 01:52:31;;;;;;;4.38;3.65;;;;;;;;;;2077755;28;20233;-58
2022/07/03 01:53:31;;;;;;;3.83;3.53;;;;;;;;;;2075093;28;20638;-57
2022/07/03 01:54:33;;;;;;;3.60;3.30;;;;;;;;;;2079014;28;20183;-56
2022/07/03 01:55:34;;;;;;;3.97;3.75;;;;;;;;;;2082683;28;20747;-57
2022/07/03 01:56:34;;;;;;;3.83;3.53;;;;;;;;;;2082325;28;20176;-59
2022/07/03 01:57:40;;;;;;;4.18;3.70;;;;;;;;;;2079934;28;20641;-59
2022/07/03 01:58:41;;;;;;;4.40;4.00;;;;;;;;;;2074758;28;20192;-60
2022/07/03 01:59:42;;;;;;;4.50;3.63;;;;;;;;;;2073921;28;20247;-60
2022/07/03 02:00:45;;;;;;;4.15;3.85;;;;;;;;;;2072297;28;20193;-59
2022/07/03 02:02:03;;;;;;;4.20;3.90;;;;;;;;;;2082577;28;20168;-58
2022/07/03 02:03:04;;;;;;;4.82;3.50;;;;;;;;;;2083125;28;20160;-60
2022/07/03 02:04:11;;;;;;;4.68;3.58;;;;;;;;;;2081776;28;20629;-56
2022/07/03 02:05:17;;;;;;;4.55;4.15;;;;;;;;;;2075683;28;20199;-58
2022/07/03 02:06:28;;;;;;;5.38;3.97;;;;;;;;;;2073189;28;20157;-58
2022/07/03 02:07:31;;;;;;;4.20;3.90;;;;;;;;;;2073987;28;20161;-58
2022/07/03 02:08:50;;;;;;;4.13;3.78;;;;;;;;;;2073654;28;20219;-58
2022/07/03 02:09:59;;;;;;;6.60;4.15;;;;;;;;;;2073244;28;20176;-57
2022/07/03 02:10:59;;;;;;;4.60;4.20;;;;;;;;;;2073092;28;20193;-54
2022/07/03 02:12:01;;;;;;;4.65;3.88;;;;;;;;;;2073297;28;20197;-58
2022/07/03 02:13:06;;;;;;;4.30;3.90;;;;;;;;;;2074211;28;20184;-52
2022/07/03 02:14:12;;;;;;;3.70;3.47;;;;;;;;;;2078085;28;20200;-51
2022/07/03 02:15:16;;;;;;;5.07;4.78;;;;;;;;;;2074510;28;20215;-53
2022/07/03 02:16:22;;;;;;;4.90;4.50;;;;;;;;;;2073216;28;20167;-57
2022/07/03 02:17:23;;;;;;;6.10;4.90;;;;;;;;;;2073651;28;20165;-56
2022/07/03 02:18:28;;;;;;;4.45;4.07;;;;;;;;;;2073501;28;20173;-56
2022/07/03 02:19:40;;;;;;;4.07;3.67;;;;;;;;;;2073185;28;20248;-58
2022/07/03 02:20:44;;;;;;;5.63;3.88;;;;;;;;;;2073051;28;20212;-55
2022/07/03 02:21:50;;;;;;;4.40;4.10;;;;;;;;;;2072618;28;20203;-56
2022/07/03 02:22:59;;;;;;;4.43;4.05;;;;;;;;;;2073143;28;20165;-54
2022/07/03 02:24:19;;;;;;;4.60;4.20;;;;;;;;;;2074307;28;20198;-59
2022/07/03 02:25:23;;;;;;;4.53;4.00;;;;;;;;;;2083310;28;20178;-59
2022/07/03 02:26:26;;;;;;;4.60;4.13;;;;;;;;;;2084701;28;20172;-56
2022/07/03 02:27:28;;;;;;;4.65;4.35;;;;;;;;;;2084249;28;20161;-56
2022/07/03 02:28:43;;;;;;;4.35;4.03;;;;;;;;;;2084124;28;20173;-53
2022/07/03 02:29:53;;;;;;;4.97;4.55;;;;;;;;;;2083855;28;20170;-55
2022/07/03 02:30:55;;;;;;;5.20;4.75;;;;;;;;;;2084323;28;20196;-57
2022/07/03 02:32:10;;;;;;;4.30;4.00;;;;;;;;;;2083671;28;20685;-58
2022/07/03 02:33:11;;;;;;;4.40;4.05;;;;;;;;;;2077397;28;20148;-57
2022/07/03 02:34:22;;;;;;;4.10;3.80;;;;;;;;;;2082445;28;20183;-58
2022/07/03 02:35:26;;;;;;;3.92;3.67;;;;;;;;;;2075804;28;20160;-56
2022/07/03 02:36:31;;;;;;;3.85;3.65;;;;;;;;;;2075197;28;20539;-55
2022/07/03 02:37:34;;;;;;;4.53;4.18;;;;;;;;;;2076074;28;20156;-57
2022/07/03 02:38:35;;;;;;;4.55;4.03;;;;;;;;;;2075890;28;20175;-57
2022/07/03 02:39:40;;;;;;;4.85;4.00;;;;;;;;;;2075998;28;20660;-55
2022/07/03 02:41:00;;;;;;;4.38;4.07;;;;;;;;;;2075991;28;20193;-54
2022/07/03 02:42:02;;;;;;;4.32;4.13;;;;;;;;;;2082420;28;20544;-59
2022/07/03 02:43:21;;;;;;;4.38;4.07;;;;;;;;;;2086061;28;20176;-58
2022/07/03 02:44:33;;;;;;;7.30;4.43;;;;;;;;;;2083756;28;20180;-57
2022/07/03 02:45:40;;;;;;;4.82;3.70;;;;;;;;;;2076953;28;20718;-54
2022/07/03 02:46:48;;;;;;;4.13;3.80;;;;;;;;;;2075962;28;20169;-57
2022/07/03 02:47:55;;;;;;;4.75;4.30;;;;;;;;;;2076008;28;20160;-54
2022/07/03 02:49:11;;;;;;;4.68;4.38;;;;;;;;;;2075953;28;20800;-58
2022/07/03 02:50:11;;;;;;;4.68;4.28;;;;;;;;;;2079896;28;20172;-55
2022/07/03 02:51:17;;;;;;;4.43;4.13;;;;;;;;;;2077643;28;20173;-54
2022/07/03 02:52:21;;;;;;;5.72;4.70;;;;;;;;;;2077519;28;20299;-56
2022/07/03 02:53:26;;;;;;;6.30;4.40;;;;;;;;;;2081851;28;20206;-58
2022/07/03 02:54:26;;;;;;;5.25;4.93;;;;;;;;;;2082391;28;20183;-56
2022/07/03 02:55:43;;;;;;;4.65;4.38;;;;;;;;;;2076711;28;20207;-55
2022/07/03 02:56:56;;;;;;;4.70;4.30;;;;;;;;;;2081113;28;20720;-55
2022/07/03 02:58:11;;;;;;;5.28;4.65;;;;;;;;;;2081891;28;20924;-55
2022/07/03 02:59:23;;;;;;;4.82;4.53;;;;;;;;;;2083469;28;20176;-51
2022/07/03 03:00:24;;;;;;;5.82;5.28;;;;;;;;;;2076997;28;20173;-56
2022/07/03 03:01:34;;;;;;;5.47;5.07;;;;;;;;;;2084408;28;20251;-59
2022/07/03 03:02:49;;;;;;;5.57;5.10;;;;;;;;;;2084056;28;20648;-52
2022/07/03 03:04:16;;;;;;;5.35;4.80;;;;;;;;;;2084740;28;20175;-56
2022/07/03 03:05:16;;;;;;;5.32;4.82;;;;;;;;;;2076690;28;20203;-58
2022/07/03 03:06:20;;;;;;;5.53;5.03;;;;;;;;;;2076599;28;20189;-57
2022/07/03 03:07:25;;;;;;;5.78;5.22;;;;;;;;;;2076654;28;20171;-58
2022/07/03 03:08:34;;;;;;;5.32;4.82;;;;;;;;;;2083515;28;20160;-60
2022/07/03 03:09:39;;;;;;;7.45;5.65;;;;;;;;;;2084528;28;20156;-59
2022/07/03 03:10:40;;;;;;;6.22;5.63;;;;;;;;;;2076395;28;20665;-58
2022/07/03 03:11:42;;;;;;;6.55;5.95;;;;;;;;;;2076493;28;20223;-59
2022/07/03 03:12:46;;;;;;;9.93;5.43;;;;;;;;;;2076317;28;20542;-60
2022/07/03 03:13:49;;;;;;;6.07;5.53;;;;;;;;;;2076812;28;20177;-58
2022/07/03 03:14:54;;;;;;;6.38;5.88;;;;;;;;;;2077981;28;20224;-60
2022/07/03 03:16:01;;;;;;;5.82;5.32;;;;;;;;;;2085367;28;20571;-56
2022/07/03 03:17:04;;;;;;;5.57;5.18;;;;;;;;;;2084012;28;20613;-54
2022/07/03 03:18:10;;;;;;;6.15;5.50;;;;;;;;;;2083516;28;20203;-55
2022/07/03 03:19:11;;;;;;;5.28;4.88;;;;;;;;;;2083626;28;20149;-51
2022/07/03 03:20:15;;;;;;;4.72;4.40;;;;;;;;;;2083840;28;20172;-56
2022/07/03 03:21:16;;;;;;;5.53;5.13;;;;;;;;;;2084139;28;20192;-55
2022/07/03 03:22:23;;;;;;;5.75;5.25;;;;;;;;;;2084110;28;20161;-57
2022/07/03 03:23:32;;;;;;;5.60;5.20;;;;;;;;;;2084238;28;20245;-58
2022/07/03 03:24:33;;;;;;;5.78;5.35;;;;;;;;;;2083118;28;20196;-53
2022/07/03 03:25:33;;;;;;;5.65;5.18;;;;;;;;;;2076103;28;20192;-58
2022/07/03 03:26:35;;;;;;;6.18;5.30;;;;;;;;;;2076081;28;20165;-57
2022/07/03 03:27:35;;;;;;;5.35;4.97;;;;;;;;;;2075822;28;20213;-54
2022/07/03 03:28:35;;;;;;;8.65;4.82;;;;;;;;;;2076271;28;20253;-57
2022/07/03 03:29:36;;;;;;;5.63;5.22;;;;;;;;;;2083349;28;20176;-56
2022/07/03 03:30:36;;;;;;;5.30;4.90;;;;;;;;;;2075805;28;20200;-56
2022/07/03 03:31:36;;;;;;;5.75;5.35;;;;;;;;;;2083725;28;20633;-58
2022/07/03 03:32:38;;;;;;;7.13;4.78;;;;;;;;;;2083979;28;20634;-57
2022/07/03 03:33:48;;;;;;;5.38;4.97;;;;;;;;;;2083696;28;20172;-57
2022/07/03 03:34:49;;;;;;;5.30;4.90;;;;;;;;;;2080957;28;20167;-53
2022/07/03 03:35:49;;;;;;;5.82;5.03;;;;;;;;;;2081065;28;20181;-54
2022/07/03 03:36:49;;;;;;;5.85;5.35;;;;;;;;;;2082000;28;20519;-56
2022/07/03 03:37:50;;;;;;;7.78;5.63;;;;;;;;;;2082421;28;20203;-49
2022/07/03 03:38:51;;;;;;;6.07;5.68;;;;;;;;;;2082559;28;20180;-57
2022/07/03 03:39:51;;;;;;;5.47;5.10;;;;;;;;;;2082605;28;20218;-56
2022/07/03 03:40:52;;;;;;;5.65;5.35;;;;;;;;;;2081084;28;20271;-56
2022/07/03 03:41:52;;;;;;;7.95;5.82;;;;;;;;;;2082755;28;20179;-58
2022/07/03 03:42:53;;;;;;;5.53;5.22;;;;;;;;;;2074009;28;20180;-55
2022/07/03 03:43:57;;;;;;;6.30;5.80;;;;;;;;;;2073710;28;20172;-55
2022/07/03 03:44:57;;;;;;;5.78;5.28;;;;;;;;;;2074748;28;20258;-55
2022/07/03 03:45:58;;;;;;;5.68;5.28;;;;;;;;;;2076954;28;20173;-60
2022/07/03 03:46:58;;;;;;;5.70;5.20;;;;;;;;;;2080524;28;20219;-56
2022/07/03 03:47:59;;;;;;;5.45;5.05;;;;;;;;;;2085358;28;20775;-54
2022/07/03 03:48:59;;;;;;;5.13;4.72;;;;;;;;;;2082234;28;20173;-57
2022/07/03 03:50:00;;;;;;;5.45;5.03;;;;;;;;;;2079599;28;20668;-53
2022/07/03 03:51:04;;;;;;;5.30;4.80;;;;;;;;;;2080182;28;20246;-58
2022/07/03 03:52:05;;;;;;;5.20;4.80;;;;;;;;;;2084653;28;20554;-57
2022/07/03 03:53:06;;;;;;;4.85;4.45;;;;;;;;;;2086323;28;20174;-56
2022/07/03 03:54:06;;;;;;;4.90;4.60;;;;;;;;;;2091024;28;20176;-54
2022/07/03 03:55:08;;;;;;;5.72;5.32;;;;;;;;;;2091709;28;20179;-58
2022/07/03 03:56:11;;;;;;;5.28;4.82;;;;;;;;;;2080160;28;20175;-56
2022/07/03 03:57:17;;;;;;;5.00;4.60;;;;;;;;;;2077822;28;20568;-55
2022/07/03 03:58:18;;;;;;;6.25;4.68;;;;;;;;;;2083596;28;20199;-55
2022/07/03 03:59:18;;;;;;;5.15;4.75;;;;;;;;;;2081557;28;20176;-59
2022/07/03 04:00:18;;;;;;;5.00;4.60;;;;;;;;;;2086410;28;20247;-60
2022/07/03 04:01:19;;;;;;;5.68;4.38;;;;;;;;;;2085283;28;20168;-57
2022/07/03 04:02:19;;;;;;;5.75;4.55;;;;;;;;;;2083946;28;20168;-54
2022/07/03 04:03:19;;;;;;;5.07;4.70;;;;;;;;;;2081802;28;20252;-58
2022/07/03 04:04:22;;;;;;;5.55;5.00;;;;;;;;;;2081296;28;20203;-56
2022/07/03 04:05:22;;;;;;;5.85;5.38;;;;;;;;;;2080424;28;20262;-51
2022/07/03 04:06:22;;;;;;;5.00;4.70;;;;;;;;;;2081484;28;20872;-54
2022/07/03 04:07:23;;;;;;;6.20;5.60;;;;;;;;;;2082243;28;20669;-56
2022/07/03 04:08:23;;;;;;;5.53;5.20;;;;;;;;;;2082222;28;20168;-54
2022/07/03 04:09:24;;;;;;;4.72;4.32;;;;;;;;;;2081810;28;20233;-57
2022/07/03 04:10:24;;;;;;;4.97;4.57;;;;;;;;;;2074005;28;20169;-52
2022/07/03 04:11:24;;;;;;;5.03;4.60;;;;;;;;;;2074168;28;20166;-54
2022/07/03 04:12:25;;;;;;;5.70;4.80;;;;;;;;;;2074966;28;20251;-57
2022/07/03 04:13:25;;;;;;;4.80;4.47;;;;;;;;;;2074262;28;20592;-56
2022/07/03 04:14:26;;;;;;;4.38;4.00;;;;;;;;;;2075404;28;20273;-55
2022/07/03 04:15:26;;;;;;;5.10;4.78;;;;;;;;;;2081170;28;20217;-54
2022/07/03 04:16:27;;;;;;;5.05;4.65;;;;;;;;;;2082320;28;20210;-55
2022/07/03 04:17:27;;;;;;;4.90;4.50;;;;;;;;;;2081952;28;20183;-54
2022/07/03 04:18:28;;;;;;;4.38;4.10;;;;;;;;;;2081644;28;20239;-53
2022/07/03 04:19:28;;;;;;;4.47;4.18;;;;;;;;;;2080707;28;20616;-54
2022/07/03 04:20:30;;;;;;;4.85;4.47;;;;;;;;;;2081715;28;20235;-55
2022/07/03 04:21:30;;;;;;;4.63;4.22;;;;;;;;;;2073955;28;20187;-53
2022/07/03 04:22:31;;;;;;;4.78;4.32;;;;;;;;;;2078195;28;20179;-54
2022/07/03 04:23:31;;;;;;;4.93;4.57;;;;;;;;;;2081441;28;20168;-56
2022/07/03 04:24:31;;;;;;;4.70;4.40;;;;;;;;;;2073304;28;20184;-56
2022/07/03 04:25:32;;;;;;;5.05;4.65;;;;;;;;;;2073956;28;20622;-57
2022/07/03 04:26:32;;;;;;;4.20;3.90;;;;;;;;;;2074028;28;20173;-56
2022/07/03 04:27:33;;;;;;;5.35;4.88;;;;;;;;;;2073898;28;20247;-58
2022/07/03 04:28:33;;;;;;;4.20;3.80;;;;;;;;;;2074326;28;20240;-58
2022/07/03 04:29:33;;;;;;;5.45;4.50;;;;;;;;;;2081968;28;20747;-55
2022/07/03 04:30:34;;;;;;;5.45;4.70;;;;;;;;;;2081674;28;20264;-55
2022/07/03 04:31:34;;;;;;;4.57;4.10;;;;;;;;;;2080020;28;20188;-56
2022/07/03 04:32:34;;;;;;;4.65;4.35;;;;;;;;;;2081942;28;20239;-58
2022/07/03 04:33:34;;;;;;;4.80;4.40;;;;;;;;;;2079828;28;20176;-55
2022/07/03 04:34:35;;;;;;;4.70;4.25;;;;;;;;;;2075370;28;20238;-54
2022/07/03 04:35:35;;;;;;;4.43;4.15;;;;;;;;;;2073921;28;20169;-54
2022/07/03 04:36:35;;;;;;;4.60;4.20;;;;;;;;;;2074126;28;20188;-54
2022/07/03 04:37:36;;;;;;;4.50;4.20;;;;;;;;;;2075100;28;20180;-54
2022/07/03 04:38:36;;;;;;;4.20;3.90;;;;;;;;;;2080015;28;20263;-55
2022/07/03 04:39:36;;;;;;;5.85;4.15;;;;;;;;;;2078799;28;20550;-55
2022/07/03 04:40:37;;;;;;;4.82;4.38;;;;;;;;;;2073964;28;20185;-58
2022/07/03 04:41:37;;;;;;;4.50;4.07;;;;;;;;;;2073748;28;20263;-58
2022/07/03 04:42:38;;;;;;;4.68;4.20;;;;;;;;;;2074057;28;20169;-53
2022/07/03 04:43:38;;;;;;;4.60;4.20;;;;;;;;;;2076608;28;20168;-54
2022/07/03 04:44:38;;;;;;;4.07;3.88;;;;;;;;;;2081522;28;20603;-52
2022/07/03 04:45:39;;;;;;;4.68;4.28;;;;;;;;;;2082444;28;20165;-55
2022/07/03 04:46:40;;;;;;;4.78;4.38;;;;;;;;;;2081757;28;20544;-58
2022/07/03 04:47:40;;;;;;;5.45;4.70;;;;;;;;;;2082212;28;20160;-53
2022/07/03 04:48:40;;;;;;;5.22;4.80;;;;;;;;;;2080547;28;20203;-55
2022/07/03 04:49:41;;;;;;;5.07;4.40;;;;;;;;;;2077261;28;20203;-57
2022/07/03 04:50:41;;;;;;;5.15;4.60;;;;;;;;;;2082276;28;20192;-55
2022/07/03 04:51:41;;;;;;;4.72;4.43;;;;;;;;;;2081838;28;20176;-57
2022/07/03 04:52:42;;;;;;;4.85;4.45;;;;;;;;;;2078266;28;20175;-57
2022/07/03 04:53:42;;;;;;;5.10;4.10;;;;;;;;;;2082040;28;20172;-57
2022/07/03 04:54:43;;;;;;;4.93;4.60;;;;;;;;;;2080624;28;20207;-54
2022/07/03 04:55:43;;;;;;;4.43;4.18;;;;;;;;;;2081382;28;20165;-55
2022/07/03 04:56:43;;;;;;;6.20;5.47;;;;;;;;;;2076218;28;20192;-58
2022/07/03 04:57:43;;;;;;;5.65;5.10;;;;;;;;;;2074726;28;20287;-52
2022/07/03 04:58:45;;;;;;;6.05;5.50;;;;;;;;;;2082101;28;20176;-58
2022/07/03 04:59:46;;;;;;;5.60;5.10;;;;;;;;;;2081989;28;20167;-55
2022/07/03 05:00:46;;;;;;;5.80;5.40;;;;;;;;;;2081230;28;20319;-54
2022/07/03 05:01:49;;;;;;;5.28;4.85;;;;;;;;;;2081388;28;20226;-56
2022/07/03 05:02:49;;;;;;;5.55;5.05;;;;;;;;;;2082106;28;20738;-55
2022/07/03 05:03:50;;;;;;;4.97;4.68;;;;;;;;;;2081918;28;20203;-55
2022/07/03 05:04:50;;;;;;;5.10;4.70;;;;;;;;;;2081264;28;20160;-57
2022/07/03 05:05:52;;;;;;;5.10;4.70;;;;;;;;;;2080995;28;20641;-56
2022/07/03 05:06:52;;;;;;;5.88;5.47;;;;;;;;;;2081762;28;20199;-56
2022/07/03 05:07:52;;;;;;;5.28;4.72;;;;;;;;;;2080885;28;20188;-57
2022/07/03 05:08:53;;;;;;;4.75;4.45;;;;;;;;;;2081358;28;20176;-55
2022/07/03 05:09:53;;;;;;;5.18;4.88;;;;;;;;;;2080758;28;20691;-58
2022/07/03 05:10:53;;;;;;;5.40;4.95;;;;;;;;;;2073702;28;20568;-56
2022/07/03 05:11:54;;;;;;;5.95;5.50;;;;;;;;;;2073592;28;20208;-55
2022/07/03 05:12:54;;;;;;;5.00;4.70;;;;;;;;;;2081669;28;20172;-55
2022/07/03 05:13:54;;;;;;;5.28;4.78;;;;;;;;;;2081052;28;20176;-56
2022/07/03 05:14:55;;;;;;;7.20;4.95;;;;;;;;;;2081270;28;20664;-54
2022/07/03 05:15:55;;;;;;;4.78;4.38;;;;;;;;;;2081055;28;20188;-57
2022/07/03 05:16:55;;;;;;;5.57;5.07;;;;;;;;;;2077038;28;20181;-55
2022/07/03 05:17:55;;;;;;;5.18;4.57;;;;;;;;;;2078084;28;20907;-55
2022/07/03 05:18:56;;;;;;;4.97;4.68;;;;;;;;;;2081036;28;20196;-54
2022/07/03 05:21:15;;;;;;;5.00;4.70;;;;;;;;;;2079985;28;20559;-57
2022/07/03 05:22:17;;;;;;;5.40;4.95;;;;;;;;;;2081506;28;20180;-57
2022/07/03 05:23:17;;;;;;;5.28;4.82;;;;;;;;;;2081669;28;20172;-58
2022/07/03 05:24:17;;;;;;;4.93;4.53;;;;;;;;;;2087008;28;20175;-56
2022/07/03 05:25:18;;;;;;;5.03;4.55;;;;;;;;;;2089951;28;20174;-54
2022/07/03 05:26:18;;;;;;;5.10;4.63;;;;;;;;;;2083335;28;20174;-55
2022/07/03 05:27:18;;;;;;;5.80;5.30;;;;;;;;;;2081642;28;20207;-53
2022/07/03 05:28:19;;;;;;;6.10;5.32;;;;;;;;;;2088094;28;20210;-55
2022/07/03 05:29:19;;;;;;;5.30;4.80;;;;;;;;;;2083216;28;20164;-58
2022/07/03 05:30:20;;;;;;;5.25;4.68;;;;;;;;;;2085427;28;20179;-56
2022/07/03 05:31:20;;;;;;;6.80;5.00;;;;;;;;;;2080328;28;20218;-55
2022/07/03 05:32:21;;;;;;;5.72;5.28;;;;;;;;;;2086887;28;20223;-55
2022/07/03 05:33:21;;;;;;;5.28;4.95;;;;;;;;;;2089848;28;20171;-53
2022/07/03 05:34:21;;;;;;;5.57;4.38;;;;;;;;;;2077880;28;21017;-56
2022/07/03 05:35:21;;;;;;;4.63;4.32;;;;;;;;;;2072647;28;20196;-53
2022/07/03 05:36:22;;;;;;;4.47;4.18;;;;;;;;;;2083468;28;20203;-54
2022/07/03 05:37:22;;;;;;;5.68;5.13;;;;;;;;;;2081527;28;20184;-57
2022/07/03 05:39:41;;;;;;;5.28;4.90;;;;;;;;;;2088469;28;20667;-56
2022/07/03 05:40:42;;;;;;;6.22;5.63;;;;;;;;;;2081284;28;20263;-55
2022/07/03 05:41:42;;;;;;;5.10;4.68;;;;;;;;;;2082941;28;20202;-57
2022/07/03 05:42:42;;;;;;;5.97;5.30;;;;;;;;;;2089901;28;20271;-59
2022/07/03 05:43:43;;;;;;;5.65;5.05;;;;;;;;;;2088145;28;20560;-58
2022/07/03 05:44:43;;;;;;;5.30;4.90;;;;;;;;;;2080586;28;20211;-62
2022/07/03 05:45:43;;;;;;;5.35;4.95;;;;;;;;;;2077963;28;20200;-55
2022/07/03 05:46:44;;;;;;;5.95;5.25;;;;;;;;;;2082572;28;20261;-56
2022/07/03 05:47:44;;;;;;;5.43;5.03;;;;;;;;;;2076195;28;20193;-55
2022/07/03 05:48:44;;;;;;;5.22;4.68;;;;;;;;;;2088064;23;21871;-57
2022/07/03 05:49:45;;;;;;;5.57;5.20;;;;;;;;;;2072431;28;20217;-55
2022/07/03 05:50:45;;;;;;;5.90;5.28;;;;;;;;;;2072367;28;20661;-55
2022/07/03 05:51:45;;;;;;;5.40;4.90;;;;;;;;;;2073897;28;20173;-56
2022/07/03 05:52:45;;;;;;;4.85;4.50;;;;;;;;;;2072637;28;20238;-56
2022/07/03 05:53:46;;;;;;;5.00;4.57;;;;;;;;;;2073746;28;20534;-54
2022/07/03 05:54:46;;;;;;;5.15;4.75;;;;;;;;;;2072148;28;20745;-54
2022/07/03 05:55:47;;;;;;;5.03;4.63;;;;;;;;;;2073191;28;20192;-54
2022/07/03 05:56:47;;;;;;;4.97;4.45;;;;;;;;;;2073062;28;20200;-56
2022/07/03 05:57:47;;;;;;;5.10;4.65;;;;;;;;;;2073395;28;20258;-56
2022/07/03 05:58:48;;;;;;;4.75;4.35;;;;;;;;;;2073082;28;20276;-57
2022/07/03 05:59:48;;;;;;;5.53;5.10;;;;;;;;;;2073486;28;20165;-54
2022/07/03 06:00:48;;;;;;;6.93;5.13;;;;;;;;;;2073491;28;20638;-55
2022/07/03 06:01:49;;;;;;;5.35;4.95;;;;;;;;;;2073353;28;20181;-53
2022/07/03 06:02:49;;;;;;;6.30;5.60;;;;;;;;;;2073597;28;20165;-56
2022/07/03 06:03:49;;;;;;;5.78;5.28;;;;;;;;;;2075027;28;20601;-55
2022/07/03 06:04:50;;;;;;;7.65;5.05;;;;;;;;;;2080135;28;20664;-56
2022/07/03 06:05:50;;;;;;;5.13;4.70;;;;;;;;;;2078599;28;20177;-56
2022/07/03 06:06:50;;;;;;;5.68;5.20;;;;;;;;;;2073568;28;20276;-55
2022/07/03 06:07:50;;;;;;;5.28;4.85;;;;;;;;;;2073090;28;20181;-56
2022/07/03 06:08:51;;;;;;;7.47;5.15;;;;;;;;;;2072898;28;20201;-56
2022/07/03 06:09:52;;;;;;;5.18;4.68;;;;;;;;;;2073457;28;20185;-54
2022/07/03 06:10:52;;;;;;;6.45;4.70;;;;;;;;;;2072867;28;20672;-56
2022/07/03 06:11:52;;;;;;;5.95;5.22;;;;;;;;;;2075419;28;20243;-55
2022/07/03 06:12:53;;;;;;;5.28;4.90;;;;;;;;;;2078353;28;20184;-57
2022/07/03 06:13:53;;;;;;;5.65;5.15;;;;;;;;;;2068699;28;20188;-57
2022/07/03 06:14:53;;;;;;;6.03;5.05;;;;;;;;;;2072963;28;20180;-57
2022/07/03 06:15:54;;;;;;;5.78;5.28;;;;;;;;;;2076217;28;20203;-54
2022/07/03 06:16:54;;;;;;;5.13;4.68;;;;;;;;;;2081768;28;20172;-55
2022/07/03 06:17:54;;;;;;;5.07;4.78;;;;;;;;;;2077728;28;20658;-57
2022/07/03 06:18:55;;;;;;;5.35;4.95;;;;;;;;;;2073296;28;20279;-55